Time,TemperatureF,DewpointF,PressureIn,WindDirection,WindDirectionDegrees,WindSpeedMPH,WindSpeedGustMPH,Humidity,HourlyPrecipIn,Conditions,Clouds,dailyrainin,SolarRadiationWatts/m^2,SoftwareType,DateUTC
2013-02-13 00:02:00,50.0,45.0,-100.00,WNW,303,7.0,13.0,82,0.00,,,0.27,0.000000,,2013-02-13 06:02:00,
2013-02-13 00:22:00,49.0,43.0,-100.00,NW,314,6.0,11.0,80,0.00,,,0.27,0.000000,,2013-02-13 06:22:00,
2013-02-13 00:32:00,49.0,43.0,-100.00,NW,314,6.0,11.0,80,0.00,,,0.27,0.000000,,2013-02-13 06:32:00,
2013-02-13 00:42:00,49.0,43.0,-100.00,NW,314,6.0,11.0,80,0.00,,,0.27,0.000000,,2013-02-13 06:42:00,
2013-02-13 00:52:00,49.0,43.0,-100.00,NW,314,6.0,11.0,80,0.00,,,0.27,0.000000,,2013-02-13 06:52:00,
2013-02-13 01:02:00,49.0,43.0,-100.00,NW,314,6.0,11.0,80,0.00,,,0.27,0.000000,,2013-02-13 07:02:00,
2013-02-13 01:32:00,48.0,42.0,-100.00,NW,315,9.0,20.0,79,0.00,,,0.27,0.000000,,2013-02-13 07:32:00,
2013-02-13 01:42:00,48.0,42.0,-100.00,NW,315,9.0,20.0,79,0.00,,,0.27,0.000000,,2013-02-13 07:42:00,
2013-02-13 01:52:00,48.0,42.0,-100.00,NW,315,9.0,20.0,79,0.00,,,0.27,0.000000,,2013-02-13 07:52:00,
2013-02-13 02:01:00,48.0,42.0,-100.00,NW,315,9.0,20.0,79,0.00,,,0.27,0.000000,,2013-02-13 08:01:00,
2013-02-13 02:32:00,48.0,42.0,-100.00,NW,307,5.0,13.0,81,0.00,,,0.27,0.000000,,2013-02-13 08:32:00,
2013-02-13 02:43:00,48.0,42.0,-100.00,NW,307,5.0,13.0,81,0.00,,,0.27,0.000000,,2013-02-13 08:43:00,
2013-02-13 02:52:00,48.0,42.0,-100.00,NW,307,5.0,13.0,81,0.00,,,0.27,0.000000,,2013-02-13 08:52:00,
2013-02-13 03:01:00,48.0,42.0,-100.00,NW,307,5.0,13.0,81,0.00,,,0.27,0.000000,,2013-02-13 09:01:00,
2013-02-13 03:21:00,48.0,42.0,-100.00,NW,326,9.0,13.0,80,0.00,,,0.27,0.000000,,2013-02-13 09:21:00,
2013-02-13 03:32:00,48.0,42.0,-100.00,NW,326,9.0,13.0,80,0.00,,,0.27,0.000000,,2013-02-13 09:32:00,
2013-02-13 03:42:00,48.0,42.0,-100.00,NW,326,9.0,13.0,80,0.00,,,0.27,0.000000,,2013-02-13 09:42:00,
2013-02-13 03:52:00,48.0,42.0,-100.00,NW,326,9.0,13.0,80,0.00,,,0.27,0.000000,,2013-02-13 09:52:00,
2013-02-13 04:01:00,48.0,42.0,-100.00,NW,326,9.0,13.0,80,0.00,,,0.27,0.000000,,2013-02-13 10:01:00,
2013-02-13 04:32:00,47.0,42.0,-100.00,NW,326,7.0,12.0,82,0.00,,,0.27,0.000000,,2013-02-13 10:32:00,
2013-02-13 04:42:00,47.0,42.0,-100.00,NW,326,7.0,12.0,82,0.00,,,0.27,0.000000,,2013-02-13 10:42:00,
2013-02-13 04:52:00,47.0,42.0,-100.00,NW,326,7.0,12.0,82,0.00,,,0.27,0.000000,,2013-02-13 10:52:00,
2013-02-13 05:01:00,47.0,42.0,-100.00,NW,326,7.0,12.0,82,0.00,,,0.27,0.000000,,2013-02-13 11:01:00,
2013-02-13 05:32:00,45.0,40.0,-100.00,NNW,328,9.0,16.0,83,0.00,,,0.26,0.000000,,2013-02-13 11:32:00,
2013-02-13 05:42:00,45.0,40.0,-100.00,NNW,328,9.0,16.0,83,0.00,,,0.26,0.000000,,2013-02-13 11:42:00,
2013-02-13 05:52:00,45.0,40.0,-100.00,NNW,328,9.0,16.0,83,0.00,,,0.26,0.000000,,2013-02-13 11:52:00,
2013-02-13 06:02:00,45.0,40.0,-100.00,NNW,328,9.0,16.0,83,0.00,,,0.26,0.000000,,2013-02-13 12:02:00,
2013-02-13 06:32:00,44.0,39.0,-100.00,NW,323,7.0,12.0,81,0.00,,,0.25,0.000000,,2013-02-13 12:32:00,
2013-02-13 06:42:00,44.0,39.0,-100.00,NW,323,7.0,12.0,81,0.00,,,0.25,0.000000,,2013-02-13 12:42:00,
2013-02-13 06:52:00,44.0,39.0,-100.00,NW,323,7.0,12.0,81,0.00,,,0.25,0.000000,,2013-02-13 12:52:00,
2013-02-13 07:02:00,44.0,39.0,-100.00,NW,323,7.0,12.0,81,0.00,,,0.25,0.000000,,2013-02-13 13:02:00,
2013-02-13 07:32:00,42.0,37.0,-100.00,NW,317,5.0,11.0,83,0.00,,,0.25,0.000000,,2013-02-13 13:32:00,
2013-02-13 07:42:00,42.0,37.0,-100.00,NW,317,5.0,11.0,83,0.00,,,0.25,0.000000,,2013-02-13 13:42:00,
2013-02-13 07:52:00,42.0,37.0,-100.00,NW,317,5.0,11.0,83,0.00,,,0.25,0.000000,,2013-02-13 13:52:00,
2013-02-13 08:01:00,42.0,37.0,-100.00,NW,317,5.0,11.0,83,0.00,,,0.25,0.000000,,2013-02-13 14:01:00,
2013-02-13 08:22:00,45.0,39.0,-100.00,NW,315,7.0,10.0,79,0.00,,,0.25,82.000000,,2013-02-13 14:22:00,
2013-02-13 08:32:00,45.0,39.0,-100.00,NW,315,7.0,10.0,79,0.00,,,0.25,82.000000,,2013-02-13 14:32:00,
2013-02-13 08:42:00,45.0,39.0,-100.00,NW,315,7.0,10.0,79,0.00,,,0.25,82.000000,,2013-02-13 14:42:00,
2013-02-13 08:52:00,45.0,39.0,-100.00,NW,315,7.0,10.0,79,0.00,,,0.25,82.000000,,2013-02-13 14:52:00,
2013-02-13 09:01:00,45.0,39.0,-100.00,NW,315,7.0,10.0,79,0.00,,,0.25,82.000000,,2013-02-13 15:01:00,
2013-02-13 09:32:00,45.0,38.0,-100.00,NNW,333,7.0,11.0,77,0.00,,,0.25,122.000000,,2013-02-13 15:32:00,
2013-02-13 09:42:00,45.0,38.0,-100.00,NNW,333,7.0,11.0,77,0.00,,,0.25,122.000000,,2013-02-13 15:42:00,
2013-02-13 09:52:00,45.0,38.0,-100.00,NNW,333,7.0,11.0,77,0.00,,,0.25,122.000000,,2013-02-13 15:52:00,
2013-02-13 10:01:00,45.0,38.0,-100.00,NNW,333,7.0,11.0,77,0.00,,,0.25,122.000000,,2013-02-13 16:01:00,
2013-02-13 10:32:00,46.0,37.0,-100.00,NNW,329,8.0,13.0,70,0.00,,,0.23,165.000000,,2013-02-13 16:32:00,
2013-02-13 10:42:00,46.0,37.0,-100.00,NNW,329,8.0,13.0,70,0.00,,,0.23,165.000000,,2013-02-13 16:42:00,
2013-02-13 10:52:00,46.0,37.0,-100.00,NNW,329,8.0,13.0,70,0.00,,,0.23,165.000000,,2013-02-13 16:52:00,
2013-02-13 11:01:00,46.0,37.0,-100.00,NNW,329,8.0,13.0,70,0.00,,,0.23,165.000000,,2013-02-13 17:01:00,
2013-02-13 11:32:00,48.0,37.0,-100.00,NW,325,7.0,14.0,66,0.00,,,0.02,520.000000,,2013-02-13 17:32:00,
2013-02-13 11:42:00,48.0,37.0,-100.00,NW,325,7.0,14.0,66,0.00,,,0.02,520.000000,,2013-02-13 17:42:00,
2013-02-13 11:52:00,48.0,37.0,-100.00,NW,325,7.0,14.0,66,0.00,,,0.02,520.000000,,2013-02-13 17:52:00,
2013-02-13 12:01:00,48.0,37.0,-100.00,NW,325,7.0,14.0,66,0.00,,,0.02,520.000000,,2013-02-13 18:01:00,
2013-02-13 12:32:00,51.0,38.0,-100.00,NNW,338,8.0,14.0,61,0.00,,,0.01,660.000000,,2013-02-13 18:32:00,
2013-02-13 12:42:00,51.0,38.0,-100.00,NNW,338,8.0,14.0,61,0.00,,,0.01,660.000000,,2013-02-13 18:42:00,
2013-02-13 12:52:00,51.0,38.0,-100.00,NNW,338,8.0,14.0,61,0.00,,,0.01,660.000000,,2013-02-13 18:52:00,
2013-02-13 13:01:00,51.0,38.0,-100.00,NNW,338,8.0,14.0,61,0.00,,,0.01,660.000000,,2013-02-13 19:01:00,
2013-02-13 13:32:00,53.0,38.0,-100.00,NNW,335,10.0,15.0,57,0.00,,,0.00,755.000000,,2013-02-13 19:32:00,
2013-02-13 13:42:00,53.0,38.0,-100.00,NNW,335,10.0,15.0,57,0.00,,,0.00,755.000000,,2013-02-13 19:42:00,
2013-02-13 13:52:00,53.0,38.0,-100.00,NNW,335,10.0,15.0,57,0.00,,,0.00,755.000000,,2013-02-13 19:52:00,
2013-02-13 14:02:00,53.0,38.0,-100.00,NNW,335,10.0,15.0,57,0.00,,,0.00,755.000000,,2013-02-13 20:02:00,
2013-02-13 14:22:00,55.0,38.0,-100.00,NNW,344,8.0,15.0,53,0.00,,,-99.99,773.000000,,2013-02-13 20:22:00,
2013-02-13 14:32:00,55.0,38.0,-100.00,NNW,344,8.0,15.0,53,0.00,,,-99.99,773.000000,,2013-02-13 20:32:00,
2013-02-13 14:42:00,55.0,38.0,-100.00,NNW,344,8.0,15.0,53,0.00,,,-99.99,773.000000,,2013-02-13 20:42:00,
2013-02-13 14:52:00,55.0,38.0,-100.00,NNW,344,8.0,15.0,53,0.00,,,-99.99,773.000000,,2013-02-13 20:52:00,
2013-02-13 15:01:00,55.0,38.0,-100.00,NNW,344,8.0,15.0,53,0.00,,,-99.99,773.000000,,2013-02-13 21:01:00,
2013-02-13 15:32:00,55.0,38.0,-100.00,North,349,7.0,16.0,53,0.00,,,0.00,594.000000,,2013-02-13 21:32:00,
2013-02-13 15:42:00,55.0,38.0,-100.00,North,349,7.0,16.0,53,0.00,,,0.00,594.000000,,2013-02-13 21:42:00,
2013-02-13 15:52:00,55.0,38.0,-100.00,North,349,7.0,16.0,53,0.00,,,0.00,594.000000,,2013-02-13 21:52:00,
2013-02-13 16:02:00,55.0,38.0,-100.00,North,349,7.0,16.0,53,0.00,,,0.00,594.000000,,2013-02-13 22:02:00,
2013-02-13 16:32:00,54.0,38.0,-100.00,NNW,348,7.0,14.0,54,0.00,,,0.00,460.000000,,2013-02-13 22:32:00,
2013-02-13 16:42:00,54.0,38.0,-100.00,NNW,348,7.0,14.0,54,0.00,,,0.00,460.000000,,2013-02-13 22:42:00,
2013-02-13 16:52:00,54.0,38.0,-100.00,NNW,348,7.0,14.0,54,0.00,,,0.00,460.000000,,2013-02-13 22:52:00,
2013-02-13 17:01:00,54.0,38.0,-100.00,NNW,348,7.0,14.0,54,0.00,,,0.00,460.000000,,2013-02-13 23:01:00,
2013-02-13 17:32:00,52.0,37.0,-100.00,NNW,331,8.0,14.0,56,0.00,,,0.00,334.000000,,2013-02-13 23:32:00,
2013-02-13 17:42:00,52.0,37.0,-100.00,NNW,331,8.0,14.0,56,0.00,,,0.00,334.000000,,2013-02-13 23:42:00,
2013-02-13 17:52:00,52.0,37.0,-100.00,NNW,331,8.0,14.0,56,0.00,,,0.00,334.000000,,2013-02-13 23:52:00,
2013-02-13 18:02:00,52.0,37.0,-100.00,NNW,331,8.0,14.0,56,0.00,,,0.00,334.000000,,2013-02-14 00:02:00,
2013-02-13 18:32:00,49.0,37.0,-100.00,NNW,338,5.0,10.0,62,0.00,,,0.00,92.000000,,2013-02-14 00:32:00,
2013-02-13 18:42:00,49.0,37.0,-100.00,NNW,338,5.0,10.0,62,0.00,,,0.00,92.000000,,2013-02-14 00:42:00,
2013-02-13 18:52:00,49.0,37.0,-100.00,NNW,338,5.0,10.0,62,0.00,,,0.00,92.000000,,2013-02-14 00:52:00,
2013-02-13 19:01:00,49.0,37.0,-100.00,NNW,338,5.0,10.0,62,0.00,,,0.00,92.000000,,2013-02-14 01:01:00,
2013-02-13 19:32:00,44.0,39.0,-100.00,WSW,240,1.0,5.0,81,0.00,,,-99.99,1.000000,,2013-02-14 01:32:00,
2013-02-13 19:42:00,44.0,39.0,-100.00,WSW,240,1.0,5.0,81,0.00,,,-99.99,1.000000,,2013-02-14 01:42:00,
2013-02-13 19:52:00,44.0,39.0,-100.00,WSW,240,1.0,5.0,81,0.00,,,-99.99,1.000000,,2013-02-14 01:52:00,
2013-02-13 20:01:00,44.0,39.0,-100.00,WSW,240,1.0,5.0,81,0.00,,,-99.99,1.000000,,2013-02-14 02:01:00,
2013-02-13 20:21:00,42.0,39.0,-100.00,SSE,164,1.0,2.0,89,0.00,,,-99.99,0.000000,,2013-02-14 02:21:00,
2013-02-13 20:32:00,42.0,39.0,-100.00,SSE,164,1.0,2.0,89,0.00,,,-99.99,0.000000,,2013-02-14 02:32:00,
2013-02-13 20:42:00,42.0,39.0,-100.00,SSE,164,1.0,2.0,89,0.00,,,-99.99,0.000000,,2013-02-14 02:42:00,
2013-02-13 20:52:00,42.0,39.0,-100.00,SSE,164,1.0,2.0,89,0.00,,,-99.99,0.000000,,2013-02-14 02:52:00,
2013-02-13 21:02:00,42.0,39.0,-100.00,SSE,164,1.0,2.0,89,0.00,,,-99.99,0.000000,,2013-02-14 03:02:00,
2013-02-13 21:22:00,39.0,37.0,-100.00,West,267,1.0,2.0,94,0.00,,,0.00,0.000000,,2013-02-14 03:22:00,
2013-02-13 21:32:00,39.0,37.0,-100.00,West,267,1.0,2.0,94,0.00,,,0.00,0.000000,,2013-02-14 03:32:00,
2013-02-13 21:42:00,39.0,37.0,-100.00,West,267,1.0,2.0,94,0.00,,,0.00,0.000000,,2013-02-14 03:42:00,
2013-02-13 21:52:00,39.0,37.0,-100.00,West,267,1.0,2.0,94,0.00,,,0.00,0.000000,,2013-02-14 03:52:00,
2013-02-13 22:01:00,39.0,37.0,-100.00,West,267,1.0,2.0,94,0.00,,,0.00,0.000000,,2013-02-14 04:01:00,
2013-02-13 22:32:00,38.0,37.0,-100.00,NNW,335,0.0,2.0,96,0.00,,,0.00,0.000000,,2013-02-14 04:32:00,
2013-02-13 22:42:00,38.0,37.0,-100.00,NNW,335,0.0,2.0,96,0.00,,,0.00,0.000000,,2013-02-14 04:42:00,
2013-02-13 22:52:00,38.0,37.0,-100.00,NNW,335,0.0,2.0,96,0.00,,,0.00,0.000000,,2013-02-14 04:52:00,
2013-02-13 23:02:00,38.0,37.0,-100.00,NNW,335,0.0,2.0,96,0.00,,,0.00,0.000000,,2013-02-14 05:02:00,
2013-02-13 23:22:00,36.0,35.0,-100.00,South,187,0.0,0.0,96,0.00,,,0.00,0.000000,,2013-02-14 05:22:00,
2013-02-13 23:32:00,36.0,35.0,-100.00,South,187,0.0,0.0,96,0.00,,,0.00,0.000000,,2013-02-14 05:32:00,
2013-02-13 23:42:00,36.0,35.0,-100.00,South,187,0.0,0.0,96,0.00,,,0.00,0.000000,,2013-02-14 05:42:00,
2013-02-13 23:52:00,36.0,35.0,-100.00,South,187,0.0,0.0,96,0.00,,,0.00,0.000000,,2013-02-14 05:52:00,